createdAt,value
2022-08-23T00:00:31.044Z,16.23
2022-08-23T00:03:28.531Z,16.20
2022-08-23T00:06:26.037Z,16.16
2022-08-23T00:09:23.504Z,16.13
2022-08-23T00:12:20.965Z,16.09
2022-08-23T00:15:18.431Z,16.06
2022-08-23T00:18:16.730Z,16.04
2022-08-23T00:21:14.420Z,16.03
2022-08-23T00:24:12.403Z,16.00
2022-08-23T00:27:09.878Z,15.98
2022-08-23T00:30:07.392Z,15.96
2022-08-23T00:33:04.860Z,15.94
2022-08-23T00:36:02.322Z,15.93
2022-08-23T00:38:59.790Z,15.92
2022-08-23T00:41:57.256Z,15.91
2022-08-23T00:45:12.366Z,15.89
2022-08-23T00:48:09.840Z,15.88
2022-08-23T00:51:07.896Z,15.87
2022-08-23T00:54:05.401Z,15.86
2022-08-23T00:57:03.389Z,15.85
2022-08-23T01:00:00.878Z,15.84
2022-08-23T01:02:58.521Z,15.84
2022-08-23T01:05:56.034Z,15.84
2022-08-23T01:08:53.488Z,15.84
2022-08-23T01:11:51.243Z,15.83
2022-08-23T01:14:49.226Z,15.83
2022-08-23T01:17:46.705Z,15.83
2022-08-23T01:20:44.181Z,15.82
2022-08-23T01:23:41.658Z,15.82
2022-08-23T01:26:39.217Z,15.80
2022-08-23T01:29:36.850Z,15.80
2022-08-23T01:32:34.301Z,15.80
2022-08-23T01:35:31.796Z,15.80
2022-08-23T01:38:30.306Z,15.80
2022-08-23T01:41:30.436Z,15.80
2022-08-23T01:44:27.928Z,15.79
2022-08-23T01:47:26.788Z,15.79
2022-08-23T01:50:24.308Z,15.80
2022-08-23T01:53:21.789Z,15.81
2022-08-23T01:56:20.129Z,15.82
2022-08-23T01:59:27.042Z,15.82
2022-08-23T02:02:24.520Z,15.84
2022-08-23T02:05:21.994Z,15.83
2022-08-23T02:08:37.481Z,15.81
2022-08-23T02:11:34.954Z,15.81
2022-08-23T02:14:32.414Z,15.80
2022-08-23T02:17:29.913Z,15.80
2022-08-23T02:20:27.363Z,15.80
2022-08-23T02:23:24.856Z,15.81
2022-08-23T02:26:30.840Z,15.81
2022-08-23T02:29:29.947Z,15.81
2022-08-23T02:32:27.976Z,15.82
2022-08-23T02:35:25.473Z,15.82
2022-08-23T02:38:22.966Z,15.82
2022-08-23T02:41:20.458Z,15.82
2022-08-23T02:44:19.293Z,15.82
2022-08-23T02:47:16.790Z,15.82
2022-08-23T02:50:14.341Z,15.82
2022-08-23T02:53:11.836Z,15.81
2022-08-23T02:56:21.137Z,15.81
2022-08-23T02:59:19.249Z,15.82
2022-08-23T03:02:24.323Z,15.82
2022-08-23T03:05:21.847Z,15.82
2022-08-23T03:08:19.347Z,15.82
2022-08-23T03:11:16.981Z,15.84
2022-08-23T03:14:14.470Z,15.84
2022-08-23T03:17:12.068Z,15.86
2022-08-23T03:20:09.582Z,15.87
2022-08-23T03:23:07.101Z,15.86
2022-08-23T03:26:04.601Z,15.87
2022-08-23T03:29:02.175Z,15.86
2022-08-23T03:31:59.634Z,15.86
2022-08-23T03:34:57.130Z,15.86
2022-08-23T03:37:55.378Z,15.87
2022-08-23T03:40:54.133Z,15.88
2022-08-23T03:43:52.835Z,15.88
2022-08-23T03:46:50.672Z,15.87
2022-08-23T03:49:48.160Z,15.88
2022-08-23T03:52:45.638Z,15.89
2022-08-23T03:55:43.121Z,15.89
2022-08-23T03:58:40.614Z,15.90
2022-08-23T04:01:38.107Z,15.90
2022-08-23T04:04:35.605Z,15.89
2022-08-23T04:07:33.096Z,15.90
2022-08-23T04:10:30.583Z,15.90
2022-08-23T04:13:29.081Z,15.91
2022-08-23T04:16:26.563Z,15.91
2022-08-23T04:19:24.020Z,15.91
2022-08-23T04:22:21.994Z,15.90
2022-08-23T04:25:33.837Z,15.92
2022-08-23T04:28:32.879Z,15.92
2022-08-23T04:31:34.453Z,15.92
2022-08-23T04:34:33.910Z,15.93
2022-08-23T04:37:31.532Z,15.94
2022-08-23T04:40:46.570Z,15.95
2022-08-23T04:43:44.444Z,15.97
2022-08-23T04:46:43.811Z,15.98
2022-08-23T04:49:42.603Z,15.99
2022-08-23T04:52:40.574Z,16.01
2022-08-23T04:55:38.037Z,16.02
2022-08-23T04:58:35.512Z,16.03
2022-08-23T05:01:33.499Z,16.04
2022-08-23T05:04:31.000Z,16.06
2022-08-23T05:07:30.951Z,16.08
2022-08-23T05:10:40.433Z,16.12
2022-08-23T05:13:38.103Z,16.15
2022-08-23T05:16:35.658Z,16.18
2022-08-23T05:19:33.131Z,16.21
2022-08-23T05:22:31.427Z,16.24
2022-08-23T05:25:49.235Z,16.26
2022-08-23T05:28:49.140Z,16.28
2022-08-23T05:31:46.973Z,16.29
2022-08-23T05:34:47.859Z,16.31
2022-08-23T05:37:45.345Z,16.32
2022-08-23T05:40:42.830Z,16.33
2022-08-23T05:43:40.303Z,16.35
2022-08-23T05:46:37.779Z,16.35
2022-08-23T05:49:36.521Z,16.35
2022-08-23T05:52:34.000Z,16.35
2022-08-23T05:55:35.002Z,16.37
2022-08-23T05:58:32.772Z,16.37
2022-08-23T06:01:30.321Z,16.38
2022-08-23T06:04:27.840Z,16.38
2022-08-23T06:07:25.360Z,16.39
2022-08-23T06:10:22.839Z,16.40
2022-08-23T06:13:20.471Z,16.39
2022-08-23T06:16:18.256Z,16.39
2022-08-23T06:19:15.742Z,16.41
2022-08-23T06:22:13.219Z,16.43
2022-08-23T06:25:10.687Z,16.44
2022-08-23T06:28:08.164Z,16.46
2022-08-23T06:31:07.184Z,16.49
2022-08-23T06:34:04.728Z,16.52
2022-08-23T06:37:02.272Z,16.56
2022-08-23T06:39:59.826Z,16.57
2022-08-23T06:42:57.344Z,16.63
2022-08-23T06:45:58.239Z,16.67
2022-08-23T06:48:56.118Z,16.72
2022-08-23T06:51:53.619Z,16.76
2022-08-23T06:54:51.977Z,16.81
2022-08-23T06:57:50.742Z,16.87
2022-08-23T07:00:48.241Z,16.94
2022-08-23T07:03:46.012Z,17.02
2022-08-23T07:06:43.482Z,17.08
2022-08-23T07:09:41.021Z,17.15
2022-08-23T07:12:38.477Z,17.23
2022-08-23T07:15:35.947Z,17.32
2022-08-23T07:18:33.473Z,17.41
2022-08-23T07:21:31.023Z,17.52
2022-08-23T07:24:33.048Z,17.64
2022-08-23T07:27:30.920Z,17.73
2022-08-23T07:30:28.464Z,17.80
2022-08-23T07:33:25.950Z,17.90
2022-08-23T07:36:23.422Z,18.01
2022-08-23T07:39:20.921Z,18.11
2022-08-23T07:42:23.530Z,18.25
2022-08-23T07:45:23.048Z,18.49
2022-08-23T07:48:43.258Z,18.90
2022-08-23T07:51:39.447Z,19.41
2022-08-23T07:54:36.944Z,19.73
2022-08-23T07:57:35.502Z,19.83
2022-08-23T08:00:32.975Z,19.77
2022-08-23T08:03:30.428Z,19.71
2022-08-23T08:06:27.903Z,19.66
2022-08-23T08:09:25.381Z,19.62
2022-08-23T08:12:23.381Z,19.60
2022-08-23T08:15:20.872Z,19.69
2022-08-23T08:18:18.426Z,19.83
2022-08-23T08:21:16.345Z,20.08
2022-08-23T08:24:14.254Z,20.31
2022-08-23T08:27:11.740Z,20.41
2022-08-23T08:30:09.210Z,20.43
2022-08-23T08:33:07.201Z,20.39
2022-08-23T08:36:04.912Z,20.31
2022-08-23T08:39:03.058Z,20.23
2022-08-23T08:42:04.574Z,20.12
2022-08-23T08:45:02.841Z,20.01
2022-08-23T08:48:01.587Z,19.90
2022-08-23T08:50:59.225Z,19.80
2022-08-23T08:53:56.948Z,19.71
2022-08-23T08:56:54.434Z,19.58
2022-08-23T08:59:51.906Z,19.43
2022-08-23T09:02:50.367Z,19.25
2022-08-23T09:05:48.175Z,19.07
2022-08-23T09:08:45.728Z,18.93
2022-08-23T09:11:45.699Z,18.79
2022-08-23T09:14:43.152Z,18.66
2022-08-23T09:17:40.709Z,18.58
2022-08-23T09:20:38.282Z,18.48
2022-08-23T09:23:38.279Z,18.37
2022-08-23T09:26:35.898Z,18.27
2022-08-23T09:29:33.373Z,18.19
2022-08-23T09:32:30.874Z,18.13
2022-08-23T09:35:28.387Z,18.08
2022-08-23T09:38:27.128Z,18.08
2022-08-23T09:41:24.745Z,18.09
2022-08-23T09:44:22.235Z,18.09
2022-08-23T09:47:19.721Z,18.08
2022-08-23T09:50:17.251Z,18.07
2022-08-23T09:53:14.737Z,18.11
2022-08-23T09:56:12.235Z,18.14
2022-08-23T09:59:09.727Z,18.15
2022-08-23T10:02:07.694Z,18.12
2022-08-23T10:05:05.910Z,18.06
2022-08-23T10:08:03.477Z,18.02
2022-08-23T10:11:00.933Z,18.02
2022-08-23T10:13:58.757Z,18.01
2022-08-23T10:16:56.244Z,18.02
2022-08-23T10:19:53.728Z,18.04
2022-08-23T10:22:51.206Z,18.07
2022-08-23T10:25:48.686Z,18.10
2022-08-23T10:29:04.046Z,18.12
2022-08-23T10:32:02.065Z,18.15
2022-08-23T10:34:59.543Z,18.24
2022-08-23T10:37:57.100Z,18.34
2022-08-23T10:40:54.986Z,18.43
2022-08-23T10:43:52.473Z,18.51
2022-08-23T10:46:50.167Z,18.61
2022-08-23T10:49:49.187Z,18.76
2022-08-23T10:52:46.702Z,18.98
2022-08-23T10:55:55.387Z,19.23
2022-08-23T10:58:53.274Z,19.57
2022-08-23T11:01:50.812Z,19.96
2022-08-23T11:04:48.374Z,20.45
2022-08-23T11:07:46.316Z,20.83
2022-08-23T11:10:56.207Z,21.10
2022-08-23T11:13:54.657Z,21.33
2022-08-23T11:16:52.133Z,21.43
2022-08-23T11:19:49.689Z,21.48
2022-08-23T11:22:47.157Z,21.57
2022-08-23T11:25:44.672Z,21.69
2022-08-23T11:28:42.156Z,21.74
2022-08-23T11:31:41.159Z,21.74
2022-08-23T11:34:39.906Z,21.95
2022-08-23T11:37:38.959Z,22.55
2022-08-23T11:40:37.667Z,22.95
2022-08-23T11:43:35.808Z,23.50
2022-08-23T11:46:34.800Z,23.95
2022-08-23T11:49:32.397Z,23.98
2022-08-23T11:52:30.500Z,23.86
2022-08-23T11:55:28.563Z,23.71
2022-08-23T11:58:26.992Z,23.61
2022-08-23T12:01:26.064Z,23.64
2022-08-23T12:04:24.250Z,23.61
2022-08-23T12:07:22.753Z,23.50
2022-08-23T12:10:22.469Z,23.35
2022-08-23T12:13:20.942Z,23.16
2022-08-23T12:16:20.953Z,22.92
2022-08-23T12:19:20.143Z,22.80
2022-08-23T12:22:18.439Z,22.73
2022-08-23T12:25:16.617Z,22.60
2022-08-23T12:28:14.688Z,22.45
2022-08-23T12:31:13.423Z,22.31
2022-08-23T12:34:13.154Z,22.22
2022-08-23T12:37:13.626Z,22.16
2022-08-23T12:40:11.532Z,22.14
2022-08-23T12:43:14.894Z,22.14
2022-08-23T12:46:20.710Z,22.16
2022-08-23T12:49:18.270Z,22.21
2022-08-23T12:52:16.005Z,22.22
2022-08-23T12:55:13.765Z,22.23
2022-08-23T12:58:11.264Z,22.20
2022-08-23T13:01:08.856Z,22.18
2022-08-23T13:04:06.429Z,22.24
2022-08-23T13:07:04.392Z,22.41
2022-08-23T13:10:01.995Z,22.72
2022-08-23T13:13:00.824Z,23.14
2022-08-23T13:15:59.010Z,23.61
2022-08-23T13:18:57.626Z,24.12
2022-08-23T13:21:56.611Z,24.56
2022-08-23T13:25:17.605Z,24.88
2022-08-23T13:28:13.007Z,25.17
2022-08-23T13:31:11.152Z,25.30
2022-08-23T13:34:08.694Z,25.28
2022-08-23T13:37:06.731Z,25.31
2022-08-23T13:40:04.433Z,25.57
2022-08-23T13:43:02.304Z,25.81
2022-08-23T13:46:02.630Z,25.93
2022-08-23T13:49:00.126Z,25.99
2022-08-23T13:52:07.006Z,25.98
2022-08-23T13:55:15.179Z,25.91
2022-08-23T13:58:12.796Z,25.73
2022-08-23T14:01:10.482Z,25.56
2022-08-23T14:04:08.022Z,25.36
2022-08-23T14:07:05.546Z,25.08
2022-08-23T14:10:03.345Z,24.85
2022-08-23T14:13:02.486Z,24.62
2022-08-23T14:16:32.858Z,24.33
2022-08-23T14:19:54.532Z,24.03
2022-08-23T14:22:35.072Z,23.75
2022-08-23T14:25:32.571Z,23.56
2022-08-23T14:28:30.089Z,23.36
2022-08-23T14:31:27.967Z,23.19
2022-08-23T14:34:25.538Z,23.01
2022-08-23T14:40:40.604Z,22.74
2022-08-23T14:43:38.423Z,22.56
2022-08-23T14:46:35.899Z,22.38
2022-08-23T14:49:33.370Z,22.22
2022-08-23T14:52:30.857Z,22.09
2022-08-23T14:55:28.338Z,22.01
2022-08-23T14:58:25.814Z,21.90
2022-08-23T15:01:23.317Z,21.81
2022-08-23T15:04:20.819Z,21.75
2022-08-23T15:07:19.329Z,21.68
2022-08-23T15:13:38.506Z,21.54
2022-08-23T15:16:52.134Z,21.46
2022-08-23T15:19:49.624Z,21.40
2022-08-23T15:22:55.748Z,21.37
2022-08-23T15:25:53.694Z,21.32
2022-08-23T15:28:51.186Z,21.26
2022-08-23T15:31:48.657Z,21.21
2022-08-23T15:34:47.998Z,21.14
2022-08-23T15:37:45.483Z,21.08
2022-08-23T15:40:42.945Z,21.01
2022-08-23T15:43:40.411Z,20.95
2022-08-23T15:46:37.915Z,20.91
2022-08-23T15:49:36.448Z,20.90
2022-08-23T15:52:34.394Z,20.92
2022-08-23T15:55:31.915Z,20.90
2022-08-23T15:58:29.446Z,20.88
2022-08-23T16:01:30.305Z,20.82
2022-08-23T16:04:27.866Z,20.74
2022-08-23T16:07:33.335Z,20.65
2022-08-23T16:10:30.855Z,20.57
2022-08-23T16:13:28.437Z,20.50
2022-08-23T16:16:25.984Z,20.45
2022-08-23T16:19:23.574Z,20.36
2022-08-23T16:22:21.560Z,20.28
2022-08-23T16:25:19.066Z,20.22
2022-08-23T16:28:16.896Z,20.16
2022-08-23T16:31:14.464Z,20.08
2022-08-23T16:34:11.947Z,19.99
2022-08-23T16:37:09.912Z,19.89
2022-08-23T16:40:07.648Z,19.82
2022-08-23T16:43:05.758Z,19.75
2022-08-23T16:46:03.303Z,19.68
2022-08-23T16:49:00.821Z,19.63
2022-08-23T16:51:58.601Z,19.58
2022-08-23T16:54:56.105Z,19.51
2022-08-23T16:57:53.639Z,19.46
2022-08-23T17:00:51.596Z,19.41
2022-08-23T17:03:49.169Z,19.37
2022-08-23T17:06:47.614Z,19.31
2022-08-23T17:09:45.444Z,19.25
2022-08-23T17:12:45.192Z,19.19
2022-08-23T17:15:44.600Z,19.12
2022-08-23T17:18:42.057Z,19.07
2022-08-23T17:21:39.726Z,19.02
2022-08-23T17:24:37.543Z,18.97
2022-08-23T17:27:35.040Z,18.92
2022-08-23T17:30:32.556Z,18.85
2022-08-23T17:33:30.033Z,18.79
2022-08-23T17:36:27.542Z,18.73
2022-08-23T17:39:27.483Z,18.68
2022-08-23T17:42:24.965Z,18.62
2022-08-23T17:45:22.495Z,18.56
2022-08-23T17:48:20.592Z,18.51
2022-08-23T17:51:18.070Z,18.48
2022-08-23T17:54:16.255Z,18.44
2022-08-23T17:57:14.321Z,18.41
2022-08-23T18:00:13.626Z,18.37
2022-08-23T18:03:11.119Z,18.34
2022-08-23T18:06:16.886Z,18.32
2022-08-23T18:09:14.850Z,18.31
2022-08-23T18:12:12.327Z,18.29
2022-08-23T18:15:10.759Z,18.27
2022-08-23T18:18:08.261Z,18.26
2022-08-23T18:21:05.787Z,18.25
2022-08-23T18:24:03.605Z,18.26
2022-08-23T18:27:21.480Z,18.26
2022-08-23T18:30:20.471Z,18.27
2022-08-23T18:33:18.295Z,18.27
2022-08-23T18:36:16.375Z,18.27
2022-08-23T18:39:14.201Z,18.28
2022-08-23T18:42:12.499Z,18.29
2022-08-23T18:45:10.291Z,18.28
2022-08-23T18:48:07.799Z,18.29
2022-08-23T18:51:05.723Z,18.29
2022-08-23T18:54:16.309Z,18.29
2022-08-23T18:57:16.107Z,18.29
2022-08-23T19:00:14.175Z,18.29
2022-08-23T19:03:12.456Z,18.29
2022-08-23T19:06:10.286Z,18.30
2022-08-23T19:09:08.222Z,18.30
2022-08-23T19:12:09.251Z,18.32
2022-08-23T19:15:07.120Z,18.32
2022-08-23T19:18:05.067Z,18.32
2022-08-23T19:21:05.737Z,18.33
2022-08-23T19:24:03.697Z,18.34
2022-08-23T19:27:01.733Z,18.34
2022-08-23T19:29:59.575Z,18.35
2022-08-23T19:32:57.579Z,18.35
2022-08-23T19:35:55.497Z,18.35
2022-08-23T19:38:57.244Z,18.34
2022-08-23T19:41:55.075Z,18.33
2022-08-23T19:44:52.988Z,18.31
2022-08-23T19:47:50.860Z,18.30
2022-08-23T19:50:52.096Z,18.29
2022-08-23T19:54:04.577Z,18.26
2022-08-23T19:57:03.009Z,18.25
2022-08-23T20:00:01.237Z,18.23
2022-08-23T20:02:59.218Z,18.22
2022-08-23T20:05:57.380Z,18.20
2022-08-23T20:08:55.297Z,18.18
2022-08-23T20:11:52.864Z,18.16
2022-08-23T20:14:51.511Z,18.14
2022-08-23T20:17:49.447Z,18.13
2022-08-23T20:20:47.432Z,18.11
2022-08-23T20:24:04.260Z,18.09
2022-08-23T20:27:05.294Z,18.08
2022-08-23T20:30:02.983Z,18.06
2022-08-23T20:33:00.813Z,18.04
2022-08-23T20:35:58.391Z,18.04
2022-08-23T20:38:58.229Z,18.02
2022-08-23T20:41:56.238Z,18.01
2022-08-23T20:44:53.995Z,18.00
2022-08-23T20:47:51.642Z,18.02
2022-08-23T20:50:49.128Z,18.03
2022-08-23T20:53:46.608Z,18.04
2022-08-23T20:56:44.077Z,18.06
2022-08-23T20:59:44.749Z,18.07
2022-08-23T21:02:42.555Z,18.08
2022-08-23T21:05:40.037Z,18.08
2022-08-23T21:08:43.260Z,18.09
2022-08-23T21:11:41.105Z,18.09
2022-08-23T21:14:38.594Z,18.10
2022-08-23T21:17:36.108Z,18.12
2022-08-23T21:20:33.624Z,18.12
2022-08-23T21:23:31.246Z,18.14
2022-08-23T21:26:29.137Z,18.16
2022-08-23T21:29:26.630Z,18.17
2022-08-23T21:32:24.644Z,18.18
2022-08-23T21:35:22.145Z,18.19
2022-08-23T21:38:20.086Z,18.21
2022-08-23T21:41:17.576Z,18.22
2022-08-23T21:44:15.184Z,18.22
2022-08-23T21:47:12.654Z,18.24
2022-08-23T21:50:10.175Z,18.24
2022-08-23T21:53:07.885Z,18.25
2022-08-23T21:56:05.647Z,18.26
2022-08-23T21:59:03.136Z,18.28
2022-08-23T22:02:00.660Z,18.29
2022-08-23T22:04:58.199Z,18.30
2022-08-23T22:07:55.660Z,18.30
2022-08-23T22:10:57.732Z,18.31
2022-08-23T22:13:55.916Z,18.32
2022-08-23T22:16:55.321Z,18.32
2022-08-23T22:19:53.072Z,18.31
2022-08-23T22:22:50.529Z,18.32
2022-08-23T22:25:48.512Z,18.32
2022-08-23T22:28:46.133Z,18.33
2022-08-23T22:31:43.617Z,18.33
2022-08-23T22:34:41.081Z,18.33
2022-08-23T22:37:53.582Z,18.34
2022-08-23T22:40:55.991Z,18.33
2022-08-23T22:43:54.495Z,18.33
2022-08-23T22:46:51.979Z,18.33
2022-08-23T22:49:49.454Z,18.33
2022-08-23T22:52:46.927Z,18.33
2022-08-23T22:55:44.779Z,18.33
2022-08-23T22:58:42.247Z,18.34
2022-08-23T23:01:39.843Z,18.32
2022-08-23T23:04:37.856Z,18.32
2022-08-23T23:07:53.224Z,18.31
2022-08-23T23:10:50.709Z,18.30
2022-08-23T23:13:48.206Z,18.29
2022-08-23T23:16:45.755Z,18.29
2022-08-23T23:20:01.171Z,18.29
2022-08-23T23:22:58.658Z,18.28
2022-08-23T23:25:56.140Z,18.28
2022-08-23T23:28:57.282Z,18.29
2022-08-23T23:31:54.923Z,18.29
2022-08-23T23:34:54.419Z,18.29
2022-08-23T23:37:55.486Z,18.30
2022-08-23T23:40:53.292Z,18.31
2022-08-23T23:43:50.763Z,18.32
2022-08-23T23:46:49.624Z,18.32
2022-08-23T23:49:47.267Z,18.32
2022-08-23T23:52:45.737Z,18.32
2022-08-23T23:55:43.219Z,18.32
2022-08-23T23:58:40.689Z,18.32
